Flight Track Log - Related Links

Times and Time Zones

All times are in EDT time to prevent confusion due to time zone crossing. See the ANA8431 flight status page for this flight to view local times or setup timezone preferences in your user account.

Time Position Orientation Groundspeed Altitude Reporting Facility
EDT Latitude Longitude Course Direction KTS MPH feet Rate Location/Type
Wed 02:57:00 PM 26.3419 127.4845 315° West  Level Estimated
Wed 02:58:00 PM 26.3905 127.4306 315° West  Level Estimated
Wed 02:59:00 PM 26.4391 127.3767 315° West  Level Estimated
Wed 03:00:00 PM 26.4877 127.3227 315° West  Level Estimated
Wed 03:01:00 PM 26.5363 127.2687 315° West  Level Estimated
Wed 03:02:00 PM 26.5849 127.2146 315° West  Level Estimated
Wed 03:03:00 PM 26.6334 127.1605 315° West  Level Estimated
Wed 03:04:00 PM 26.6819 127.1064 315° West  Level Estimated
Wed 03:05:00 PM 26.7304 127.0521 315° West  Level Estimated
Wed 03:06:00 PM 26.7789 126.9979 315° West  Level Estimated
Wed 03:07:00 PM 26.8274 126.9436 315° West  Level Estimated
Wed 03:08:00 PM 26.8758 126.8893 315° West  Level Estimated
Wed 03:09:00 PM 26.9242 126.8349 315° West  Level Estimated
Wed 03:10:00 PM 26.9726 126.7804 315° West  Level Estimated
Wed 03:11:00 PM 27.0210 126.7260 315° West  Level Estimated
Wed 03:12:00 PM 27.0694 126.6714 315° West  Level Estimated
Wed 03:13:00 PM 27.1177 126.6168 315° West  Level Estimated
Wed 03:14:00 PM 27.1660 126.5622 315° West  Level Estimated
Wed 03:15:00 PM 27.2143 126.5076 315° West  Level Estimated
Wed 03:16:00 PM 27.2626 126.4528 315° West  Level Estimated
Wed 03:17:00 PM 27.3108 126.3981 315° West  Level Estimated
Wed 03:18:00 PM 27.3591 126.3432 315° West  Level Estimated
Wed 03:19:00 PM 27.4073 126.2884 315° West  Level Estimated
Wed 03:20:00 PM 27.4555 126.2335 315° West  Level Estimated
Wed 03:21:00 PM 27.5036 126.1785 315° West  Level Estimated
Wed 03:22:00 PM 27.5518 126.1235 315° West  Level Estimated
Wed 03:23:00 PM 27.5999 126.0685 315° West  Level Estimated
Wed 03:24:00 PM 27.6480 126.0134 315° West  Level Estimated
Wed 03:25:00 PM 27.6961 125.9582 315° West  Level Estimated
Wed 03:26:00 PM 27.7441 125.9030 315° West  Level Estimated
Wed 03:27:00 PM 27.7921 125.8478 315° West  Level Estimated
Wed 03:28:00 PM 27.8402 125.7925 314° West  Level Estimated
Wed 03:29:00 PM 27.8881 125.7371 314° West  Level Estimated
Wed 03:30:00 PM 27.9361 125.6817 314° West  Level Estimated
Wed 03:31:00 PM 27.9841 125.6263 314° West  Level Estimated
Wed 03:32:00 PM 28.0320 125.5708 314° West  Level Estimated
Wed 03:33:00 PM 28.0799 125.5152 314° West  Level Estimated
Wed 03:34:00 PM 28.1278 125.4596 314° West  Level Estimated
Wed 03:35:00 PM 28.1756 125.4040 314° West  Level Estimated
Wed 03:36:00 PM 28.2234 125.3483 314° West  Level Estimated
Wed 03:37:00 PM 28.2712 125.2926 314° West  Level Estimated
Wed 03:38:00 PM 28.3190 125.2368 314° West  Level Estimated
Wed 03:39:00 PM 28.3668 125.1809 314° West  Level Estimated
Wed 03:40:00 PM 28.4145 125.1251 314° West  Level Estimated
Wed 03:41:00 PM 28.4623 125.0691 314° West  Level Estimated
Wed 03:42:00 PM 28.5100 125.0131 314° West  Level Estimated
Wed 03:43:00 PM 28.5576 124.9571 314° West  Level Estimated
Wed 03:44:00 PM 28.6053 124.9010 314° West  Level Estimated
Wed 03:45:00 PM 28.6529 124.8448 314° West  Level Estimated
Wed 03:46:00 PM 28.7005 124.7886 314° West  Level Estimated
Wed 03:47:00 PM 28.7481 124.7324 314° West  Level Estimated
Wed 03:48:00 PM 28.7957 124.6761 314° West  Level Estimated
Wed 03:49:00 PM 28.8432 124.6197 314° West  Level Estimated
Wed 03:50:00 PM 28.8907 124.5633 314° West  Level Estimated
Wed 03:51:00 PM 28.9382 124.5069 314° West  Level Estimated
Wed 03:52:00 PM 28.9856 124.4504 314° West  Level Estimated
Wed 03:53:00 PM 29.0331 124.3938 314° West  Level Estimated
Wed 03:54:00 PM 29.0805 124.3372 314° West  Level Estimated
Wed 03:55:00 PM 29.1279 124.2805 314° West  Level Estimated
Wed 03:56:00 PM 29.1753 124.2238 314° West  Level Estimated
Wed 03:57:00 PM 29.2226 124.1671 314° West  Level Estimated
Wed 03:58:00 PM 29.2699 124.1103 314° West  Level Estimated
Wed 03:59:00 PM 29.3172 124.0534 314° West  Level Estimated
Wed 04:00:00 PM 29.3645 123.9965 314° West  Level Estimated
Wed 04:01:00 PM 29.4117 123.9395 314° West  Level Estimated
Wed 04:02:00 PM 29.4590 123.8824 314° West  Level Estimated
Wed 04:03:00 PM 29.5062 123.8254 314° West  Level Estimated
Wed 04:04:00 PM 29.5533 123.7682 314° West  Level Estimated
Wed 04:05:00 PM 29.6005 123.7110 313° West  Level Estimated
Wed 04:06:00 PM 29.6476 123.6538 313° West  Level Estimated
Wed 04:07:00 PM 29.6947 123.5965 313° West  Level Estimated
Wed 04:08:00 PM 29.7418 123.5391 313° West  Level Estimated
Wed 04:09:00 PM 29.7889 123.4818 313° West  Level Estimated
Wed 04:10:00 PM 29.8359 123.4243 313° West  Level Estimated
Wed 04:11:00 PM 29.8829 123.3668 313° West  Level Estimated
Wed 04:12:00 PM 29.9299 123.3092 313° West  Level Estimated
Wed 04:13:00 PM 29.9768 123.2516 313° West  Level Estimated
Wed 04:14:00 PM 30.0237 123.1939 313° West  Level Estimated
Wed 04:15:00 PM 30.0706 123.1362 313° West  Level Estimated
Wed 04:16:00 PM 30.1175 123.0784 313° West  Level Estimated
Wed 04:17:00 PM 30.1644 123.0206 313° West  Level Estimated
Wed 04:18:00 PM 30.2112 122.9627 313° West  Level Estimated
Wed 04:19:00 PM 30.2580 122.9047 313° West  Level Estimated
Wed 04:20:00 PM 30.3048 122.8467 313° West  Level Estimated
Wed 04:21:00 PM 30.3515 122.7887 313° West  Level Estimated
Wed 04:21:33 PM 31.3430 122.6750 313° West 350 403 13,000  Level FlightAware ADS-B
Wed 04:22:00 PM 30.3983 122.7305 313° West  Level Estimated
Wed 04:22:18 PM 31.3300 122.6040 258° West 349 402 12,600  Level FlightAware ADS-B
Wed 04:22:33 PM 31.3220 122.5640 257° West 352 405 9,600 -4,950 Descending FlightAware ADS-B
Wed 04:22:58 PM 31.3130 122.5180 257° West 339 390 9,300 -462 Descending FlightAware ADS-B
Wed 04:23:38 PM 31.3010 122.4490 259° West 335 386 9,100 -171 Descending FlightAware ADS-B
Wed 04:24:08 PM 31.2920 122.4040 257° West 335 386 9,100  Level FlightAware ADS-B
Wed 04:24:18 PM 31.2900 122.3890 261° West 335 386 9,100  Level FlightAware ADS-B
Wed 04:24:48 PM 31.2810 122.3440 257° West 335 386 9,100  Level FlightAware ADS-B
Wed 04:25:08 PM 31.2760 122.3130 259° West 335 386 9,100 -1,432 Level FlightAware ADS-B
Wed 04:27:00 PM 31.2395 122.1695 253° West  Level Estimated
Wed 04:27:08 PM 31.1970 122.1500 253° West 5,600  Level FlightAware ADS-B
Wed 04:27:23 PM 31.1840 122.1360 223° Southwest 276 318 5,400 -800 Descending FlightAware ADS-B
Wed 04:27:53 PM 31.1550 122.1020 225° Southwest 261 300 5,000 -800 Descending FlightAware ADS-B
Wed 04:28:23 PM 31.1330 122.0760 225° Southwest 254 292 4,600 -1,091 Descending FlightAware ADS-B
Wed 04:28:48 PM 31.1080 122.0470 225° Southwest 253 291 4,000 -1,309 Descending FlightAware ADS-B
Wed 04:29:18 PM 31.0840 122.0190 225° Southwest 253 291 3,400 -1,200 Descending FlightAware ADS-B
Wed 04:29:33 PM 31.0730 122.0060 225° Southwest 256 295 3,100 -450 Descending FlightAware ADS-B
Wed 04:29:58 PM 31.0530 121.9830 225° Southwest 256 295 3,100 -655 Level FlightAware ADS-B
Wed 04:30:28 PM 31.0270 121.9520 226° Southwest 225 259 2,500 -1,067 Descending FlightAware ADS-B
Wed 04:30:43 PM 31.0160 121.9400 223° Southwest 210 242 2,300 -600 Descending FlightAware ADS-B
Wed 04:31:08 PM 30.9990 121.9200 225° Southwest 205 236 2,100 -109 Descending FlightAware ADS-B
Wed 04:31:38 PM 30.9830 121.8930 235° Southwest 207 238 2,200 100 Climbing FlightAware ADS-B
Wed 04:32:08 PM 30.9950 121.8690 300° West 190 219 2,200  Level FlightAware ADS-B
Wed 04:32:18 PM 31.0050 121.8670 350° North 182 209 2,200 -150 Level FlightAware ADS-B
Wed 04:32:48 PM 31.0300 121.8600 347° North 185 213 2,100 -400 Descending FlightAware ADS-B
Wed 04:33:03 PM 31.0420 121.8550 340° North 170 196 1,900 -900 Descending FlightAware ADS-B
Wed 04:33:28 PM 31.0620 121.8490 346° North 167 192 1,500 -943 Descending FlightAware ADS-B
Wed 04:34:13 PM 31.0940 121.8360 341° North 151 174 800 -857 Descending FlightAware ADS-B
Wed 04:34:38 PM 31.1120 121.8300 344° North 157 181 500 -327 Descending FlightAware ADS-B
Wed 04:35:08 PM 31.1300 121.8220 339° North 157 181 500  Level FlightAware ADS-B
Wed 04:37:00 PM 31.1428 121.7924 297° West  Level Estimated
Wed 04:38:00 PM 31.1428 121.7924 221° Southwest  Level Estimated
Wed 04:39:00 PM 31.1428 121.7924 221° Southwest  Level Estimated
Wed 04:40:00 PM 31.1428 121.7924 221° Southwest  Level Estimated
Wed 04:41:00 PM 31.1428 121.7924 221° Southwest  Level Estimated
Wed 04:42:00 PM 31.1428 121.7924 221° Southwest  Level Estimated
Wed 04:43:00 PM 31.1428 121.7924 221° Southwest  Level Estimated
Wed 04:44:00 PM 31.1428 121.7924 221° Southwest  Level Estimated
Wed 04:45:00 PM 31.1428 121.7924 221° Southwest  Level Estimated

Login

Don't have an account? Register now (free) for customized features, flight alerts, and more!